Time;durP1;ratioP1;P1;durP2;ratioP2;P2;SDS_P1;SDS_P2;PMS_P1;PMS_P2;Temp;Humidity;BMP_temperature;BMP_pressure;BME280_temperature;BME280_humidity;BME280_pressure;Samples;Min_cycle;Max_cycle;Signal;HPM_P1;HPM_P2
2022/09/06 00:00:09;;;;;;;25.30;23.90;;;19.70;81.60;;;;;;5098507;28;20479;-71
2022/09/06 00:02:37;;;;;;;23.43;22.23;;;19.70;81.70;;;;;;5105696;28;20539;-75
2022/09/06 00:05:05;;;;;;;25.73;24.10;;;19.60;81.90;;;;;;5092360;27;20899;-72
2022/09/06 00:07:32;;;;;;;24.57;23.37;;;19.60;81.90;;;;;;5102347;28;20457;-70
2022/09/06 00:10:00;;;;;;;22.40;21.30;;;19.50;82.10;;;;;;5095109;28;20445;-71
2022/09/06 00:12:28;;;;;;;22.67;21.43;;;19.50;82.20;;;;;;5109213;27;20472;-73
2022/09/06 00:14:55;;;;;;;24.73;23.33;;;19.50;82.30;;;;;;5105922;28;20460;-72
2022/09/06 00:17:22;;;;;;;23.70;22.40;;;19.40;82.40;;;;;;5105783;28;20492;-72
2022/09/06 00:19:49;;;;;;;22.30;21.20;;;19.40;82.40;;;;;;5102554;28;20469;-71
2022/09/06 00:22:16;;;;;;;23.83;22.53;;;19.40;82.40;;;;;;5088063;27;20473;-75
2022/09/06 00:24:42;;;;;;;23.30;22.30;;;19.40;82.50;;;;;;5100049;27;20471;-75
2022/09/06 00:27:11;;;;;;;23.90;22.80;;;19.40;82.40;;;;;;5097740;27;20456;-71
2022/09/06 00:29:38;;;;;;;23.43;22.33;;;19.40;82.40;;;;;;5091649;28;20456;-71
2022/09/06 00:32:05;;;;;;;23.43;22.30;;;19.40;82.40;;;;;;5100165;28;20475;-71
2022/09/06 00:34:32;;;;;;;24.87;23.47;;;19.40;82.50;;;;;;5093949;27;20550;-71
2022/09/06 00:36:58;;;;;;;23.93;22.60;;;19.30;82.60;;;;;;5096910;27;20462;-71
2022/09/06 00:39:25;;;;;;;24.40;23.20;;;19.30;82.60;;;;;;5102648;27;20810;-71
2022/09/06 00:41:52;;;;;;;22.53;21.33;;;19.30;82.60;;;;;;5104237;28;20902;-71
2022/09/06 00:44:21;;;;;;;24.13;22.97;;;19.30;82.70;;;;;;5097834;28;20452;-72
2022/09/06 00:46:51;;;;;;;25.30;24.00;;;19.30;82.80;;;;;;5107033;28;20459;-70
2022/09/06 00:49:24;;;;;;;24.17;23.07;;;19.20;83.00;;;;;;5102281;28;20453;-71
2022/09/06 00:51:53;;;;;;;23.93;22.70;;;19.20;83.10;;;;;;5101417;28;20492;-71
2022/09/06 00:54:20;;;;;;;24.47;23.27;;;19.20;83.20;;;;;;5093634;28;20544;-75
2022/09/06 00:56:48;;;;;;;24.50;23.10;;;19.20;83.10;;;;;;5095478;27;22061;-72
2022/09/06 00:59:15;;;;;;;23.13;21.87;;;19.20;83.00;;;;;;5101179;27;20473;-74
2022/09/06 01:01:44;;;;;;;24.97;23.67;;;19.20;83.00;;;;;;5098383;28;20564;-72
2022/09/06 01:04:11;;;;;;;24.70;23.37;;;19.20;82.90;;;;;;5104065;28;20452;-69
2022/09/06 01:06:48;;;;;;;25.10;23.80;;;19.20;83.10;;;;;;5099360;28;20459;-68
2022/09/06 01:09:27;;;;;;;24.80;23.63;;;19.20;83.10;;;;;;5098475;28;20464;-68
2022/09/06 01:12:04;;;;;;;24.53;23.43;;;19.20;83.00;;;;;;5104325;27;20473;-69
2022/09/06 01:14:44;;;;;;;24.50;23.40;;;19.10;83.30;;;;;;5092722;28;20461;-69
2022/09/06 01:17:21;;;;;;;24.53;23.33;;;19.10;83.40;;;;;;5105182;27;20448;-69
2022/09/06 01:20:27;;;;;;;24.20;23.07;;;19.10;83.30;;;;;;5096569;27;20497;-69
2022/09/06 01:23:29;;;;;;;24.23;23.13;;;19.10;83.20;;;;;;5093766;28;20711;-69
2022/09/06 01:26:10;;;;;;;24.20;23.00;;;19.10;83.30;;;;;;5094780;28;20462;-68
2022/09/06 01:28:42;;;;;;;22.93;21.93;;;19.10;83.40;;;;;;5097324;27;20552;-69
2022/09/06 01:31:22;;;;;;;23.57;22.23;;;19.10;83.40;;;;;;5088752;27;20442;-68
2022/09/06 01:33:56;;;;;;;23.93;22.63;;;19.10;83.40;;;;;;5093249;28;20962;-69
2022/09/06 01:36:27;;;;;;;24.90;23.50;;;19.00;83.50;;;;;;5092422;28;20473;-69
2022/09/06 01:38:53;;;;;;;23.20;22.03;;;19.00;83.50;;;;;;5099844;28;20461;-69
2022/09/06 01:41:20;;;;;;;23.37;22.17;;;19.00;83.60;;;;;;5098524;28;20457;-68
2022/09/06 01:43:51;;;;;;;22.60;21.40;;;19.00;83.60;;;;;;5100558;28;20461;-69
2022/09/06 01:46:26;;;;;;;22.77;21.27;;;19.00;83.50;;;;;;5102028;28;20962;-69
2022/09/06 01:49:13;;;;;;;21.07;20.07;;;19.00;83.40;;;;;;5097976;28;20451;-69
2022/09/06 01:51:53;;;;;;;22.73;21.63;;;19.00;83.40;;;;;;5093568;28;20515;-68
2022/09/06 01:54:32;;;;;;;23.00;21.80;;;19.00;83.30;;;;;;5091889;28;20457;-69
2022/09/06 01:57:13;;;;;;;23.17;22.07;;;19.00;83.00;;;;;;5098997;28;20507;-69
2022/09/06 02:00:01;;;;;;;22.80;21.60;;;19.00;83.10;;;;;;5092421;28;20530;-69
2022/09/06 02:02:37;;;;;;;23.33;22.13;;;19.00;83.20;;;;;;5101649;28;21045;-69
2022/09/06 02:05:08;;;;;;;22.87;21.77;;;19.00;83.30;;;;;;5094155;28;20544;-69
2022/09/06 02:07:38;;;;;;;23.60;22.33;;;18.90;83.40;;;;;;5098852;28;20487;-69
2022/09/06 02:10:09;;;;;;;23.10;22.00;;;18.90;83.30;;;;;;5102618;28;20487;-69
2022/09/06 02:12:39;;;;;;;28.73;27.33;;;19.00;83.20;;;;;;5097183;28;20511;-69
2022/09/06 02:15:11;;;;;;;23.20;22.10;;;19.00;82.90;;;;;;5098001;28;20453;-69
2022/09/06 02:17:44;;;;;;;25.27;23.83;;;18.90;83.00;;;;;;5099249;28;21096;-69
2022/09/06 02:20:16;;;;;;;29.53;28.07;;;18.90;82.90;;;;;;5105932;28;20547;-69
2022/09/06 02:22:47;;;;;;;24.77;23.57;;;18.90;83.20;;;;;;5091632;28;20873;-69
2022/09/06 02:25:21;;;;;;;24.23;23.10;;;18.90;82.50;;;;;;5097412;28;20467;-69
2022/09/06 02:27:48;;;;;;;33.50;31.80;;;19.00;81.60;;;;;;5101603;28;20456;-69
2022/09/06 02:30:17;;;;;;;25.23;24.03;;;19.30;80.00;;;;;;5092536;28;20480;-69
2022/09/06 02:32:50;;;;;;;26.03;24.57;;;19.50;79.20;;;;;;5104124;28;20500;-68
2022/09/06 02:35:17;;;;;;;24.73;23.43;;;19.60;79.00;;;;;;5096073;28;20544;-68
2022/09/06 02:37:45;;;;;;;26.07;24.97;;;19.80;78.70;;;;;;5099930;28;20458;-69
2022/09/06 02:40:12;;;;;;;27.47;26.07;;;19.90;78.10;;;;;;5096617;28;21007;-69
2022/09/06 02:42:40;;;;;;;26.90;25.50;;;20.00;77.90;;;;;;5097043;28;20479;-69
2022/09/06 02:45:08;;;;;;;28.63;27.33;;;20.10;77.60;;;;;;5096040;28;21036;-70
2022/09/06 02:47:36;;;;;;;32.47;30.87;;;20.20;77.30;;;;;;5105370;28;20460;-70
2022/09/06 02:50:04;;;;;;;24.80;23.50;;;20.40;76.80;;;;;;5093090;28;20470;-69
2022/09/06 02:52:31;;;;;;;29.20;27.60;;;20.50;76.60;;;;;;5098955;28;20560;-70
2022/09/06 02:54:57;;;;;;;28.53;26.70;;;20.50;76.90;;;;;;5092997;28;20456;-69
2022/09/06 02:57:24;;;;;;;44.60;42.23;;;20.60;76.70;;;;;;5090179;28;20474;-69
2022/09/06 02:59:51;;;;;;;31.00;29.50;;;20.70;77.20;;;;;;5100243;28;20795;-70
2022/09/06 03:02:19;;;;;;;28.17;26.63;;;20.80;77.60;;;;;;5104538;28;20476;-69
2022/09/06 03:04:47;;;;;;;27.20;25.77;;;20.70;79.40;;;;;;5091883;28;20461;-70
2022/09/06 03:07:14;;;;;;;28.17;26.77;;;20.60;80.00;;;;;;5095865;28;20452;-70
2022/09/06 03:09:41;;;;;;;27.47;25.87;;;20.50;80.80;;;;;;5102330;28;20463;-69
2022/09/06 03:12:08;;;;;;;28.27;26.77;;;20.50;82.30;;;;;;5101355;28;20472;-69
2022/09/06 03:14:35;;;;;;;28.33;26.73;;;20.40;83.30;;;;;;5095244;28;20493;-69
2022/09/06 03:17:03;;;;;;;41.50;39.47;;;20.40;83.80;;;;;;5107587;27;20461;-69
2022/09/06 03:19:30;;;;;;;27.30;25.73;;;20.30;84.20;;;;;;5096329;28;20461;-69
2022/09/06 03:21:58;;;;;;;39.97;37.97;;;20.20;84.70;;;;;;5099532;27;20604;-70
2022/09/06 03:24:25;;;;;;;29.00;27.57;;;20.30;85.40;;;;;;5108706;27;20535;-70
2022/09/06 03:26:52;;;;;;;23.40;21.90;;;20.20;85.50;;;;;;5102953;27;20489;-70
2022/09/06 03:29:19;;;;;;;24.17;22.87;;;20.10;85.60;;;;;;5098323;27;20548;-70
2022/09/06 03:31:45;;;;;;;22.40;20.90;;;20.10;86.70;;;;;;5101404;27;20501;-69
2022/09/06 03:34:12;;;;;;;22.33;21.13;;;20.00;87.70;;;;;;5098505;28;20556;-70
2022/09/06 03:36:39;;;;;;;21.67;20.53;;;19.90;88.20;;;;;;5093118;28;20475;-70
2022/09/06 03:39:08;;;;;;;44.43;42.17;;;19.70;88.70;;;;;;5094096;27;20449;-70
2022/09/06 03:41:37;;;;;;;23.67;22.43;;;19.60;89.10;;;;;;5105763;28;20938;-71
2022/09/06 03:44:03;;;;;;;34.10;32.10;;;19.60;89.40;;;;;;5106830;27;20477;-69
2022/09/06 03:46:30;;;;;;;37.87;35.97;;;19.50;89.40;;;;;;5102170;27;20537;-73
2022/09/06 03:48:58;;;;;;;22.43;21.23;;;19.40;89.90;;;;;;5105339;27;20559;-71
2022/09/06 03:51:25;;;;;;;28.27;26.43;;;19.50;90.00;;;;;;5105650;27;21011;-71
2022/09/06 03:53:53;;;;;;;19.13;18.03;;;19.40;89.80;;;;;;5102072;27;20454;-70
2022/09/06 03:56:21;;;;;;;30.47;28.73;;;19.40;89.90;;;;;;5101072;27;20792;-70
2022/09/06 03:58:48;;;;;;;23.73;21.93;;;19.30;90.70;;;;;;5106587;27;20993;-70
2022/09/06 04:01:15;;;;;;;20.37;19.17;;;19.30;91.00;;;;;;5098536;27;20485;-76
2022/09/06 04:03:42;;;;;;;30.43;28.83;;;19.10;91.60;;;;;;5101770;27;20462;-72
2022/09/06 04:06:09;;;;;;;27.30;25.63;;;19.10;92.10;;;;;;5105965;28;20459;-72
2022/09/06 04:08:37;;;;;;;17.90;16.73;;;19.00;92.20;;;;;;5101847;27;20826;-77
2022/09/06 04:11:05;;;;;;;24.33;22.83;;;19.00;92.20;;;;;;5099548;28;20467;-73
2022/09/06 04:13:34;;;;;;;35.17;32.97;;;18.90;92.20;;;;;;5093057;28;20449;-71
2022/09/06 04:16:02;;;;;;;22.67;21.57;;;18.90;92.40;;;;;;5107531;28;20449;-72
2022/09/06 04:18:29;;;;;;;17.63;16.43;;;19.00;92.10;;;;;;5091881;28;20976;-71
2022/09/06 04:20:56;;;;;;;21.03;18.50;;;18.90;92.20;;;;;;5094591;27;21002;-71
2022/09/06 04:23:24;;;;;;;20.03;18.50;;;18.90;92.20;;;;;;5101570;27;20486;-71
2022/09/06 04:25:53;;;;;;;20.00;18.47;;;18.90;92.30;;;;;;5110040;28;20449;-72
2022/09/06 04:28:21;;;;;;;20.53;19.00;;;18.90;92.20;;;;;;5102991;28;20523;-72
2022/09/06 04:30:54;;;;;;;18.67;17.57;;;18.80;92.30;;;;;;5106941;28;22784;-72
2022/09/06 04:33:24;;;;;;;20.98;19.58;;;18.90;92.30;;;;;;5103175;28;20902;-73
2022/09/06 04:35:52;;;;;;;18.20;16.93;;;19.00;92.10;;;;;;5105934;28;20755;-73
2022/09/06 04:38:19;;;;;;;21.90;20.80;;;18.90;91.90;;;;;;5088681;27;20462;-72
2022/09/06 04:40:46;;;;;;;20.17;18.73;;;18.90;91.80;;;;;;5090151;28;20998;-74
2022/09/06 04:43:13;;;;;;;34.10;32.23;;;18.90;91.80;;;;;;5102605;27;20477;-74
2022/09/06 04:45:39;;;;;;;35.50;33.20;;;18.90;91.70;;;;;;5090414;28;20462;-74
2022/09/06 04:48:08;;;;;;;23.60;22.20;;;18.90;91.70;;;;;;5100446;27;21061;-76
2022/09/06 04:50:35;;;;;;;33.57;31.80;;;18.90;91.80;;;;;;5105404;28;20460;-72
2022/09/06 04:53:02;;;;;;;25.83;24.20;;;18.90;92.00;;;;;;5101498;28;20821;-69
2022/09/06 04:55:30;;;;;;;18.47;17.37;;;18.90;92.10;;;;;;5092093;28;21067;-69
2022/09/06 04:57:58;;;;;;;17.00;16.00;;;18.90;92.00;;;;;;5092078;28;20514;-72
2022/09/06 05:00:25;;;;;;;27.17;25.50;;;19.00;91.80;;;;;;5101067;28;21221;-71
2022/09/06 05:02:53;;;;;;;22.53;21.10;;;19.00;91.70;;;;;;5095166;28;21842;-72
2022/09/06 05:05:22;;;;;;;19.40;18.20;;;19.00;91.80;;;;;;5096403;28;20539;-70
2022/09/06 05:07:51;;;;;;;19.27;18.07;;;19.00;91.80;;;;;;5091851;28;20468;-69
2022/09/06 05:10:18;;;;;;;21.00;19.77;;;19.00;91.80;;;;;;5104493;27;20493;-70
2022/09/06 05:12:48;;;;;;;36.23;34.07;;;19.00;91.80;;;;;;5106301;27;21227;-74
2022/09/06 05:15:15;;;;;;;17.60;16.30;;;19.00;92.00;;;;;;5105688;28;20489;-72
2022/09/06 05:17:42;;;;;;;29.00;26.93;;;19.00;91.90;;;;;;5107203;28;20518;-71
2022/09/06 05:20:10;;;;;;;18.60;17.50;;;19.00;92.00;;;;;;5102423;28;20461;-73
2022/09/06 05:22:39;;;;;;;17.53;16.53;;;19.00;92.40;;;;;;5107763;28;20483;-72
2022/09/06 05:25:07;;;;;;;27.63;26.03;;;19.00;92.30;;;;;;5090914;28;20503;-72
2022/09/06 05:27:34;;;;;;;25.63;24.23;;;19.00;92.00;;;;;;5100417;28;20547;-74
2022/09/06 05:30:02;;;;;;;19.00;17.93;;;19.00;91.90;;;;;;5097411;27;20539;-75
2022/09/06 05:32:29;;;;;;;15.80;14.90;;;19.10;91.90;;;;;;5102328;28;20560;-75
2022/09/06 05:34:56;;;;;;;21.40;20.20;;;19.10;91.90;;;;;;5090827;27;20464;-70
2022/09/06 05:37:23;;;;;;;17.63;16.37;;;19.20;91.70;;;;;;5094779;28;20457;-71
2022/09/06 05:39:51;;;;;;;21.93;20.60;;;19.20;91.70;;;;;;5088845;28;20463;-73
2022/09/06 05:42:18;;;;;;;17.60;16.17;;;19.30;91.50;;;;;;5095262;27;20487;-76
2022/09/06 05:44:45;;;;;;;19.00;17.90;;;19.30;91.10;;;;;;5089537;28;21142;-71
2022/09/06 05:47:12;;;;;;;20.30;18.93;;;19.30;91.10;;;;;;5089998;28;20830;-71
2022/09/06 05:49:39;;;;;;;27.70;26.03;;;19.30;91.30;;;;;;5095511;28;20548;-72
2022/09/06 05:52:06;;;;;;;18.50;17.30;;;19.30;90.80;;;;;;5102542;28;20838;-73
2022/09/06 05:54:33;;;;;;;22.90;21.60;;;19.40;90.50;;;;;;5096324;28;21108;-71
2022/09/06 05:57:01;;;;;;;19.53;18.23;;;19.60;89.90;;;;;;5088765;28;20471;-71
2022/09/06 05:59:28;;;;;;;36.53;34.60;;;19.70;89.30;;;;;;5086633;28;20457;-72
2022/09/06 06:01:55;;;;;;;19.37;18.07;;;19.70;88.90;;;;;;5090546;28;20568;-76
2022/09/06 06:04:22;;;;;;;26.23;24.60;;;19.70;89.00;;;;;;5101477;28;20444;-72
2022/09/06 06:06:49;;;;;;;34.47;32.40;;;19.80;89.10;;;;;;5096883;28;20465;-73
2022/09/06 06:09:17;;;;;;;23.50;22.10;;;19.80;89.10;;;;;;5088936;28;20458;-73
2022/09/06 06:11:44;;;;;;;24.83;23.20;;;19.90;88.70;;;;;;5100311;28;20473;-73
2022/09/06 06:14:12;;;;;;;22.50;21.20;;;19.90;88.30;;;;;;5099278;28;20449;-72
2022/09/06 06:16:39;;;;;;;23.00;21.70;;;19.90;88.30;;;;;;5097942;28;20464;-71
2022/09/06 06:19:06;;;;;;;37.77;35.80;;;20.00;88.20;;;;;;5091686;28;20956;-70
2022/09/06 06:21:37;;;;;;;23.23;21.93;;;20.00;88.20;;;;;;5104162;28;21289;-70
2022/09/06 06:24:06;;;;;;;29.17;27.57;;;20.00;88.00;;;;;;5103629;28;20458;-69
2022/09/06 06:26:35;;;;;;;28.33;26.73;;;20.10;87.80;;;;;;5101485;28;20481;-71
2022/09/06 06:29:02;;;;;;;35.80;33.83;;;20.20;87.40;;;;;;5094983;28;20472;-71
2022/09/06 06:31:32;;;;;;;36.00;34.17;;;20.30;86.80;;;;;;5103362;28;20476;-71
2022/09/06 06:34:02;;;;;;;34.40;32.47;;;20.40;86.40;;;;;;5096075;28;20456;-70
2022/09/06 06:36:30;;;;;;;26.20;24.77;;;20.50;85.90;;;;;;5103686;28;20452;-69
2022/09/06 06:38:58;;;;;;;26.50;24.97;;;20.50;85.90;;;;;;5095394;28;20469;-71
2022/09/06 06:41:27;;;;;;;38.10;36.03;;;20.70;85.20;;;;;;5107079;28;20485;-71
2022/09/06 06:43:54;;;;;;;42.63;40.43;;;20.90;84.40;;;;;;5098759;28;20476;-71
2022/09/06 06:46:23;;;;;;;43.20;41.10;;;20.90;84.30;;;;;;5101603;28;20544;-70
2022/09/06 06:48:53;;;;;;;35.37;32.97;;;21.10;83.70;;;;;;5092729;28;20909;-69
2022/09/06 06:51:21;;;;;;;41.30;38.70;;;21.20;83.40;;;;;;5104995;28;20465;-70
2022/09/06 06:53:48;;;;;;;35.13;33.40;;;21.30;82.90;;;;;;5103371;28;20478;-72
2022/09/06 06:56:17;;;;;;;28.77;27.27;;;21.50;82.20;;;;;;5112276;28;20495;-69
2022/09/06 06:58:44;;;;;;;27.77;26.17;;;21.70;81.30;;;;;;5093564;27;20818;-70
2022/09/06 07:01:12;;;;;;;37.28;35.28;;;21.80;80.60;;;;;;5099444;28;20465;-69
2022/09/06 07:03:39;;;;;;;48.30;45.90;;;22.00;80.10;;;;;;5092619;27;20199;-71
2022/09/06 07:06:09;;;;;;;36.30;34.47;;;22.10;79.70;;;;;;5094440;28;20548;-70
2022/09/06 07:08:37;;;;;;;37.37;35.40;;;22.20;79.50;;;;;;5089351;28;20452;-71
2022/09/06 07:11:05;;;;;;;43.00;40.87;;;22.30;78.30;;;;;;5090336;28;20452;-69
2022/09/06 07:13:33;;;;;;;38.17;36.00;;;22.50;77.80;;;;;;5090508;28;20469;-70
2022/09/06 07:16:11;;;;;;;35.67;33.30;;;22.60;77.60;;;;;;5089834;28;20462;-70
2022/09/06 07:18:40;;;;;;;47.97;45.43;;;22.80;76.30;;;;;;5088372;28;20461;-70
2022/09/06 07:21:11;;;;;;;43.87;41.47;;;22.80;76.10;;;;;;5093122;27;20473;-71
2022/09/06 07:23:38;;;;;;;40.10;38.03;;;22.90;76.00;;;;;;5092415;27;20452;-71
2022/09/06 07:26:06;;;;;;;39.17;37.03;;;22.90;75.90;;;;;;5101194;28;20458;-71
2022/09/06 07:28:33;;;;;;;43.97;41.63;;;22.90;75.90;;;;;;5095624;28;20453;-72
2022/09/06 07:31:00;;;;;;;38.60;36.40;;;23.00;75.60;;;;;;5094826;27;20979;-76
2022/09/06 07:33:27;;;;;;;50.00;47.40;;;23.00;76.00;;;;;;5096022;28;20479;-73
2022/09/06 07:35:59;;;;;;;35.50;33.60;;;22.90;76.10;;;;;;5089527;27;20446;-73
2022/09/06 07:38:28;;;;;;;40.43;38.20;;;23.00;75.90;;;;;;5089372;28;20886;-75
2022/09/06 07:40:56;;;;;;;38.20;36.30;;;22.80;76.40;;;;;;5095632;27;20476;-73
2022/09/06 07:43:24;;;;;;;48.47;45.70;;;22.90;75.80;;;;;;5094187;27;20479;-71
2022/09/06 07:46:03;;;;;;;44.23;41.97;;;22.90;75.20;;;;;;5098266;28;20545;-70
2022/09/06 07:48:31;;;;;;;42.40;40.40;;;22.90;75.50;;;;;;5109747;28;20458;-69
2022/09/06 07:51:09;;;;;;;37.60;35.77;;;22.90;75.60;;;;;;5101225;28;20538;-71
2022/09/06 07:53:38;;;;;;;38.40;36.50;;;23.00;75.40;;;;;;5100528;28;20461;-76
2022/09/06 07:56:08;;;;;;;35.40;33.33;;;23.20;74.80;;;;;;5092499;27;20461;-71
2022/09/06 07:58:36;;;;;;;37.43;35.50;;;23.30;73.70;;;;;;5101766;28;20574;-73
2022/09/06 08:01:34;;;;;;;41.90;39.73;;;23.40;73.40;;;;;;5091560;27;20510;-73
2022/09/06 08:04:03;;;;;;;45.50;43.10;;;23.40;72.90;;;;;;5040604;28;21208;-72
2022/09/06 08:06:33;;;;;;;38.47;36.67;;;23.50;72.90;;;;;;5086861;27;20456;-74
2022/09/06 08:09:01;;;;;;;38.13;36.00;;;23.60;72.70;;;;;;5091980;28;21038;-73
2022/09/06 08:11:30;;;;;;;49.93;47.50;;;23.80;71.80;;;;;;5098950;28;20463;-72
2022/09/06 08:13:58;;;;;;;42.10;40.00;;;23.90;71.70;;;;;;5093390;27;20449;-72
2022/09/06 08:16:28;;;;;;;37.53;35.43;;;23.90;71.20;;;;;;5102343;27;20501;-72
2022/09/06 08:18:59;;;;;;;40.60;38.40;;;24.00;71.00;;;;;;5107250;28;20452;-72
2022/09/06 08:21:28;;;;;;;35.90;34.20;;;24.00;70.20;;;;;;5097740;27;20509;-74
2022/09/06 08:23:56;;;;;;;39.37;37.27;;;24.10;70.20;;;;;;5093256;27;20457;-74
2022/09/06 08:26:27;;;;;;;48.40;45.90;;;24.20;69.80;;;;;;5098257;28;20552;-74
2022/09/06 08:28:56;;;;;;;41.13;38.93;;;24.30;69.70;;;;;;5107927;27;20522;-74
2022/09/06 08:31:23;;;;;;;48.60;46.43;;;24.40;69.40;;;;;;5094804;28;20864;-74
2022/09/06 08:33:52;;;;;;;35.97;34.17;;;24.50;69.10;;;;;;5101881;28;20529;-73
2022/09/06 08:36:20;;;;;;;40.67;38.80;;;24.60;69.10;;;;;;5095840;28;20465;-77
2022/09/06 08:38:49;;;;;;;36.93;35.23;;;24.80;68.70;;;;;;5095818;28;20453;-76
2022/09/06 08:41:24;;;;;;;44.90;42.53;;;24.90;68.60;;;;;;5094611;28;20457;-73
2022/09/06 08:43:56;;;;;;;51.60;49.00;;;25.00;68.60;;;;;;5094688;28;20464;-72
2022/09/06 08:46:31;;;;;;;54.43;51.50;;;25.20;68.10;;;;;;5106489;28;20521;-73
2022/09/06 08:48:58;;;;;;;43.40;40.70;;;25.30;67.90;;;;;;5096347;27;20559;-73
2022/09/06 08:51:50;;;;;;;39.73;37.83;;;25.40;67.50;;;;;;5099039;27;20608;-72
2022/09/06 08:54:24;;;;;;;48.73;46.27;;;25.50;66.70;;;;;;5084408;28;21131;-70
2022/09/06 08:57:03;;;;;;;46.17;43.87;;;25.60;66.50;;;;;;5099254;28;20457;-74
2022/09/06 08:59:37;;;;;;;37.33;35.43;;;25.80;65.90;;;;;;5089922;28;20472;-69
2022/09/06 09:02:12;;;;;;;52.40;49.70;;;25.90;65.20;;;;;;5103187;28;20513;-74
2022/09/06 09:04:42;;;;;;;54.47;51.73;;;26.00;64.80;;;;;;5101082;28;20467;-73
2022/09/06 09:07:32;;;;;;;51.80;49.23;;;26.20;64.50;;;;;;5100505;28;20985;-74
2022/09/06 09:10:02;;;;;;;49.83;46.73;;;26.40;64.10;;;;;;5095632;28;21080;-70
2022/09/06 09:12:33;;;;;;;47.23;45.03;;;26.50;63.60;;;;;;5089609;28;20497;-71
2022/09/06 09:15:08;;;;;;;38.20;36.27;;;26.70;63.20;;;;;;5094946;27;20461;-72
2022/09/06 09:17:36;;;;;;;52.30;49.40;;;26.90;63.20;;;;;;5103200;28;20946;-72
2022/09/06 09:20:03;;;;;;;38.80;36.83;;;27.10;62.40;;;;;;5099312;27;20470;-76
2022/09/06 09:22:30;;;;;;;50.20;47.27;;;27.30;62.40;;;;;;5097272;27;20476;-73
2022/09/06 09:24:58;;;;;;;51.60;48.60;;;27.60;62.00;;;;;;5102327;28;20449;-72
2022/09/06 09:27:27;;;;;;;49.30;46.70;;;27.90;61.30;;;;;;5105779;28;20448;-71
2022/09/06 09:30:00;;;;;;;50.97;47.97;;;28.10;60.80;;;;;;5103855;27;20557;-72
2022/09/06 09:32:33;;;;;;;51.57;48.87;;;28.20;60.20;;;;;;5105173;28;20465;-72
2022/09/06 09:35:26;;;;;;;45.33;42.83;;;28.30;60.40;;;;;;5108154;28;20455;-70
2022/09/06 09:38:01;;;;;;;50.27;47.57;;;28.40;60.50;;;;;;5106645;28;20456;-70
2022/09/06 09:40:32;;;;;;;54.17;51.13;;;28.40;60.70;;;;;;5102741;27;20464;-70
2022/09/06 09:43:11;;;;;;;54.23;51.33;;;28.30;60.40;;;;;;5098620;27;20549;-70
2022/09/06 09:45:38;;;;;;;49.87;46.90;;;28.40;60.20;;;;;;5106285;27;20450;-70
2022/09/06 09:48:20;;;;;;;55.17;52.23;;;28.50;59.90;;;;;;5101754;28;20961;-70
2022/09/06 09:50:47;;;;;;;43.93;41.50;;;28.60;59.60;;;;;;5103616;28;20852;-70
2022/09/06 09:53:18;;;;;;;50.10;47.00;;;28.70;59.70;;;;;;5100933;27;20567;-70
2022/09/06 09:55:45;;;;;;;48.63;45.90;;;28.60;59.90;;;;;;5094800;28;20453;-69
2022/09/06 09:58:24;;;;;;;44.13;41.77;;;28.80;59.60;;;;;;5103536;28;20463;-70
2022/09/06 10:01:10;;;;;;;54.30;50.87;;;28.90;59.00;;;;;;5092237;28;20453;-70
2022/09/06 10:03:38;;;;;;;41.67;39.40;;;29.00;58.90;;;;;;5098595;28;20479;-72
2022/09/06 10:06:08;;;;;;;41.60;39.37;;;29.10;58.20;;;;;;5093851;28;20457;-73
2022/09/06 10:08:41;;;;;;;52.30;49.60;;;29.20;58.30;;;;;;5104851;28;20455;-72
2022/09/06 10:11:13;;;;;;;48.37;45.33;;;29.30;58.50;;;;;;5103334;28;20507;-73
2022/09/06 10:13:42;;;;;;;46.77;44.30;;;29.40;57.80;;;;;;5099545;28;20459;-72
2022/09/06 10:16:09;;;;;;;52.97;49.67;;;29.60;57.80;;;;;;5112083;28;20484;-73
2022/09/06 10:18:39;;;;;;;47.87;45.13;;;29.80;56.90;;;;;;5106801;28;20563;-73
2022/09/06 10:21:09;;;;;;;51.23;48.57;;;29.80;54.50;;;;;;5103997;28;20463;-74
2022/09/06 10:23:48;;;;;;;48.50;45.37;;;29.30;54.30;;;;;;5090428;28;20476;-73
2022/09/06 10:26:23;;;;;;;50.77;47.97;;;29.10;55.50;;;;;;5098358;28;20452;-74
2022/09/06 10:28:58;;;;;;;39.73;37.53;;;29.20;55.70;;;;;;5106041;27;20460;-73
2022/09/06 10:31:57;;;;;;;51.97;48.90;;;29.50;55.60;;;;;;5102926;28;20479;-77
2022/09/06 10:35:06;;;;;;;39.20;37.03;;;29.90;54.30;;;;;;5083717;28;20456;-73
2022/09/06 10:38:04;;;;;;;51.07;48.23;;;30.00;53.90;;;;;;5098094;28;20463;-72
2022/09/06 10:40:36;;;;;;;38.47;35.33;;;29.70;55.20;;;;;;5097249;28;20449;-74
2022/09/06 10:43:07;;;;;;;51.40;48.47;;;29.90;54.10;;;;;;5101306;27;20472;-75
2022/09/06 10:45:44;;;;;;;54.00;51.10;;;30.00;54.70;;;;;;5095139;27;20874;-74
2022/09/06 10:48:17;;;;;;;38.43;36.23;;;30.10;54.60;;;;;;5101235;28;20465;-73
2022/09/06 10:50:50;;;;;;;57.83;54.77;;;30.20;54.70;;;;;;5097465;28;20536;-75
2022/09/06 10:53:30;;;;;;;46.13;43.83;;;30.40;54.40;;;;;;5103329;27;20469;-74
2022/09/06 10:56:03;;;;;;;41.17;38.90;;;30.60;54.00;;;;;;5102089;28;20464;-72
2022/09/06 10:58:36;;;;;;;42.10;39.60;;;30.80;53.40;;;;;;5107693;28;20466;-73
2022/09/06 11:01:07;;;;;;;50.90;48.03;;;31.00;53.30;;;;;;5115178;28;20503;-73
2022/09/06 11:03:39;;;;;;;52.87;49.97;;;31.10;53.30;;;;;;5108019;27;20652;-75
2022/09/06 11:06:09;;;;;;;49.87;47.00;;;31.20;53.00;;;;;;5099400;27;20942;-75
2022/09/06 11:08:43;;;;;;;43.60;41.27;;;31.30;52.90;;;;;;5105274;28;20883;-74
2022/09/06 11:11:17;;;;;;;42.70;40.13;;;31.40;53.00;;;;;;5109530;27;20454;-73
2022/09/06 11:13:43;;;;;;;54.90;51.80;;;31.40;53.10;;;;;;5105622;27;20962;-73
2022/09/06 11:16:16;;;;;;;49.83;47.40;;;31.30;53.00;;;;;;5109490;27;20468;-73
2022/09/06 11:18:49;;;;;;;56.07;52.53;;;31.40;53.30;;;;;;5107250;27;20468;-73
2022/09/06 11:21:53;;;;;;;40.53;38.57;;;31.30;53.40;;;;;;5105346;28;20474;-75
2022/09/06 11:24:33;;;;;;;41.20;38.90;;;31.30;53.90;;;;;;5107269;28;20544;-73
2022/09/06 11:27:05;;;;;;;57.43;54.53;;;31.20;52.70;;;;;;5095266;27;20845;-73
2022/09/06 11:29:34;;;;;;;49.30;46.90;;;31.10;53.50;;;;;;5104621;28;20459;-73
2022/09/06 11:32:02;;;;;;;45.90;43.40;;;31.00;53.90;;;;;;5109560;27;20471;-74
2022/09/06 11:34:32;;;;;;;43.67;41.47;;;30.90;54.50;;;;;;5108759;28;20461;-72
2022/09/06 11:37:00;;;;;;;52.33;49.43;;;30.90;55.00;;;;;;5110242;28;20452;-72
2022/09/06 11:39:33;;;;;;;56.13;52.77;;;30.90;55.00;;;;;;5106213;27;20460;-71
2022/09/06 11:42:00;;;;;;;59.87;56.73;;;30.90;55.20;;;;;;5110648;28;20545;-71
2022/09/06 11:45:06;;;;;;;42.37;39.97;;;30.90;55.30;;;;;;5102061;28;20468;-72
2022/09/06 11:47:39;;;;;;;57.40;54.57;;;31.00;55.20;;;;;;5108457;27;20449;-71
2022/09/06 11:50:26;;;;;;;58.53;55.40;;;31.00;55.20;;;;;;5099636;28;20463;-72
2022/09/06 11:53:11;;;;;;;56.30;53.00;;;31.10;54.90;;;;;;5108548;28;20465;-72
2022/09/06 11:55:43;;;;;;;47.80;44.90;;;31.30;54.50;;;;;;5108987;28;20491;-72
2022/09/06 11:58:20;;;;;;;46.80;44.30;;;31.30;54.30;;;;;;5111497;28;20461;-72
2022/09/06 12:01:40;;;;;;;52.87;49.67;;;31.40;54.40;;;;;;5113221;28;20448;-73
2022/09/06 12:04:09;;;;;;;49.20;46.40;;;31.40;54.20;;;;;;5031136;28;20518;-72
2022/09/06 12:06:39;;;;;;;55.90;53.10;;;31.60;53.60;;;;;;5031892;28;20467;-71
2022/09/06 12:09:29;;;;;;;45.97;43.80;;;31.60;53.20;;;;;;5067261;27;20456;-72
2022/09/06 12:11:58;;;;;;;51.20;48.03;;;31.90;52.60;;;;;;5102731;28;20556;-72
2022/09/06 12:14:34;;;;;;;48.27;45.53;;;31.80;53.10;;;;;;5114342;28;20454;-71
2022/09/06 12:17:25;;;;;;;51.00;48.33;;;31.90;53.20;;;;;;5113539;28;20863;-72
2022/09/06 12:20:05;;;;;;;51.30;48.43;;;32.00;52.50;;;;;;5108848;28;20502;-72
2022/09/06 12:23:03;;;;;;;52.53;49.73;;;32.10;52.40;;;;;;5112987;28;20472;-72
2022/09/06 12:25:57;;;;;;;52.03;49.23;;;32.10;52.10;;;;;;5103422;28;20848;-72
2022/09/06 12:28:42;;;;;;;44.23;41.40;;;32.00;52.00;;;;;;5111439;28;20527;-72
2022/09/06 12:31:28;;;;;;;50.27;47.67;;;32.00;51.30;;;;;;5113978;28;20480;-72
2022/09/06 12:33:56;;;;;;;56.37;53.43;;;31.40;52.90;;;;;;5105009;28;20468;-72
2022/09/06 12:36:28;;;;;;;43.43;40.70;;;31.50;53.00;;;;;;5110294;28;20515;-72
2022/09/06 12:38:57;;;;;;;41.03;38.73;;;31.50;53.00;;;;;;5110775;27;20509;-71
2022/09/06 12:41:25;;;;;;;43.30;40.60;;;31.60;52.70;;;;;;5108146;28;20544;-71
2022/09/06 12:43:56;;;;;;;55.43;52.47;;;31.50;52.50;;;;;;5108998;27;20464;-71
2022/09/06 12:46:25;;;;;;;60.93;57.80;;;31.20;53.20;;;;;;5111985;28;20456;-71
2022/09/06 12:49:06;;;;;;;60.33;57.00;;;30.70;53.90;;;;;;5110633;28;20543;-72